sensor_id;sensor_type;location;lat;lon;timestamp;pressure;altitude;pressure_sealevel;temperature
63220;BMP180;49320;52.512;13.448;2022-12-07T00:01:36;100782.00;;;10.80
63220;BMP180;49320;52.512;13.448;2022-12-07T00:04:07;100788.00;;;10.80
63220;BMP180;49320;52.512;13.448;2022-12-07T00:06:46;100793.00;;;10.80
63220;BMP180;49320;52.512;13.448;2022-12-07T00:09:17;100785.00;;;10.80
63220;BMP180;49320;52.512;13.448;2022-12-07T00:11:48;100786.00;;;10.80
63220;BMP180;49320;52.512;13.448;2022-12-07T00:14:17;100774.00;;;10.80
63220;BMP180;49320;52.512;13.448;2022-12-07T00:16:44;100772.00;;;10.70
63220;BMP180;49320;52.512;13.448;2022-12-07T00:19:13;100765.00;;;10.60
63220;BMP180;49320;52.512;13.448;2022-12-07T00:21:41;100760.00;;;10.60
63220;BMP180;49320;52.512;13.448;2022-12-07T00:24:10;100770.00;;;10.60
63220;BMP180;49320;52.512;13.448;2022-12-07T00:26:40;100771.00;;;10.60
63220;BMP180;49320;52.512;13.448;2022-12-07T00:29:19;100769.00;;;10.60
63220;BMP180;49320;52.512;13.448;2022-12-07T00:31:46;100765.00;;;10.60
63220;BMP180;49320;52.512;13.448;2022-12-07T00:34:17;100764.00;;;10.60
63220;BMP180;49320;52.512;13.448;2022-12-07T00:36:44;100764.00;;;10.60
63220;BMP180;49320;52.512;13.448;2022-12-07T00:39:11;100762.00;;;10.60
63220;BMP180;49320;52.512;13.448;2022-12-07T00:41:38;100758.00;;;10.60
63220;BMP180;49320;52.512;13.448;2022-12-07T00:44:05;100758.00;;;10.60
63220;BMP180;49320;52.512;13.448;2022-12-07T00:46:32;100749.00;;;10.60
63220;BMP180;49320;52.512;13.448;2022-12-07T00:48:59;100751.00;;;10.60
63220;BMP180;49320;52.512;13.448;2022-12-07T00:51:26;100756.00;;;10.60
63220;BMP180;49320;52.512;13.448;2022-12-07T00:53:53;100749.00;;;10.60
63220;BMP180;49320;52.512;13.448;2022-12-07T00:56:26;100751.00;;;10.60
63220;BMP180;49320;52.512;13.448;2022-12-07T00:58:55;100751.00;;;10.50
63220;BMP180;49320;52.512;13.448;2022-12-07T01:01:25;100750.00;;;10.50
63220;BMP180;49320;52.512;13.448;2022-12-07T01:03:53;100744.00;;;10.40
63220;BMP180;49320;52.512;13.448;2022-12-07T01:06:22;100742.00;;;10.40
63220;BMP180;49320;52.512;13.448;2022-12-07T01:08:49;100738.00;;;10.30
63220;BMP180;49320;52.512;13.448;2022-12-07T01:11:20;100738.00;;;10.30
63220;BMP180;49320;52.512;13.448;2022-12-07T01:13:54;100742.00;;;10.30
63220;BMP180;49320;52.512;13.448;2022-12-07T01:16:24;100740.00;;;10.20
63220;BMP180;49320;52.512;13.448;2022-12-07T01:18:54;100730.00;;;10.20
63220;BMP180;49320;52.512;13.448;2022-12-07T01:21:30;100737.00;;;10.20
63220;BMP180;49320;52.512;13.448;2022-12-07T01:24:02;100720.00;;;10.20
63220;BMP180;49320;52.512;13.448;2022-12-07T01:26:29;100725.00;;;10.20
63220;BMP180;49320;52.512;13.448;2022-12-07T01:28:56;100724.00;;;10.30
63220;BMP180;49320;52.512;13.448;2022-12-07T01:31:27;100723.00;;;10.30
63220;BMP180;49320;52.512;13.448;2022-12-07T01:33:58;100723.00;;;10.30
63220;BMP180;49320;52.512;13.448;2022-12-07T01:36:32;100721.00;;;10.20
63220;BMP180;49320;52.512;13.448;2022-12-07T01:39:04;100720.00;;;10.20
63220;BMP180;49320;52.512;13.448;2022-12-07T01:41:35;100721.00;;;10.20
63220;BMP180;49320;52.512;13.448;2022-12-07T01:44:22;100725.00;;;10.20
63220;BMP180;49320;52.512;13.448;2022-12-07T01:54:49;100705.00;;;10.20
63220;BMP180;49320;52.512;13.448;2022-12-07T01:57:18;100701.00;;;10.20
63220;BMP180;49320;52.512;13.448;2022-12-07T01:59:48;100695.00;;;10.30
63220;BMP180;49320;52.512;13.448;2022-12-07T02:02:23;100694.00;;;10.30
63220;BMP180;49320;52.512;13.448;2022-12-07T02:04:54;100694.00;;;10.40
63220;BMP180;49320;52.512;13.448;2022-12-07T02:07:23;100692.00;;;10.50
63220;BMP180;49320;52.512;13.448;2022-12-07T02:09:50;100692.00;;;10.50
63220;BMP180;49320;52.512;13.448;2022-12-07T02:12:17;100675.00;;;10.50
63220;BMP180;49320;52.512;13.448;2022-12-07T02:14:44;100690.00;;;10.60
63220;BMP180;49320;52.512;13.448;2022-12-07T02:17:28;100683.00;;;10.60
63220;BMP180;49320;52.512;13.448;2022-12-07T02:20:26;100694.00;;;10.60
63220;BMP180;49320;52.512;13.448;2022-12-07T02:23:40;100688.00;;;10.60
63220;BMP180;49320;52.512;13.448;2022-12-07T02:30:10;100682.00;;;10.50
63220;BMP180;49320;52.512;13.448;2022-12-07T02:33:11;100681.00;;;10.40
63220;BMP180;49320;52.512;13.448;2022-12-07T02:39:20;100662.00;;;10.40
63220;BMP180;49320;52.512;13.448;2022-12-07T02:41:56;100662.00;;;10.40
63220;BMP180;49320;52.512;13.448;2022-12-07T02:44:28;100663.00;;;10.40
63220;BMP180;49320;52.512;13.448;2022-12-07T02:47:02;100663.00;;;10.40
63220;BMP180;49320;52.512;13.448;2022-12-07T02:49:30;100658.00;;;10.30
63220;BMP180;49320;52.512;13.448;2022-12-07T02:51:58;100652.00;;;10.30
63220;BMP180;49320;52.512;13.448;2022-12-07T02:54:24;100658.00;;;10.30
63220;BMP180;49320;52.512;13.448;2022-12-07T02:57:14;100653.00;;;10.30
63220;BMP180;49320;52.512;13.448;2022-12-07T03:00:01;100646.00;;;10.20
63220;BMP180;49320;52.512;13.448;2022-12-07T03:02:53;100634.00;;;10.20
63220;BMP180;49320;52.512;13.448;2022-12-07T03:11:09;100635.00;;;10.30
63220;BMP180;49320;52.512;13.448;2022-12-07T03:14:02;100638.00;;;10.30
63220;BMP180;49320;52.512;13.448;2022-12-07T03:16:51;100624.00;;;10.30
63220;BMP180;49320;52.512;13.448;2022-12-07T03:19:23;100622.00;;;10.30
63220;BMP180;49320;52.512;13.448;2022-12-07T03:22:02;100612.00;;;10.30
63220;BMP180;49320;52.512;13.448;2022-12-07T03:24:37;100609.00;;;10.30
63220;BMP180;49320;52.512;13.448;2022-12-07T03:27:25;100609.00;;;10.30
63220;BMP180;49320;52.512;13.448;2022-12-07T03:30:02;100615.00;;;10.40
63220;BMP180;49320;52.512;13.448;2022-12-07T03:32:35;100596.00;;;10.40
63220;BMP180;49320;52.512;13.448;2022-12-07T03:35:29;100587.00;;;10.40
63220;BMP180;49320;52.512;13.448;2022-12-07T03:38:11;100580.00;;;10.50
63220;BMP180;49320;52.512;13.448;2022-12-07T03:40:51;100572.00;;;10.50
63220;BMP180;49320;52.512;13.448;2022-12-07T03:43:20;100573.00;;;10.50
63220;BMP180;49320;52.512;13.448;2022-12-07T03:49:21;100562.00;;;10.50
63220;BMP180;49320;52.512;13.448;2022-12-07T03:52:02;100556.00;;;10.50
63220;BMP180;49320;52.512;13.448;2022-12-07T03:54:49;100555.00;;;10.60
63220;BMP180;49320;52.512;13.448;2022-12-07T03:57:20;100550.00;;;10.60
63220;BMP180;49320;52.512;13.448;2022-12-07T03:59:48;100541.00;;;10.60
63220;BMP180;49320;52.512;13.448;2022-12-07T04:02:16;100544.00;;;10.60
63220;BMP180;49320;52.512;13.448;2022-12-07T04:04:43;100538.00;;;10.60
63220;BMP180;49320;52.512;13.448;2022-12-07T04:07:10;100537.00;;;10.50
63220;BMP180;49320;52.512;13.448;2022-12-07T04:09:37;100549.00;;;10.50
63220;BMP180;49320;52.512;13.448;2022-12-07T04:12:04;100529.00;;;10.50
63220;BMP180;49320;52.512;13.448;2022-12-07T04:14:31;100539.00;;;10.50
63220;BMP180;49320;52.512;13.448;2022-12-07T04:16:58;100541.00;;;10.50
63220;BMP180;49320;52.512;13.448;2022-12-07T04:19:29;100532.00;;;10.50
63220;BMP180;49320;52.512;13.448;2022-12-07T04:21:57;100523.00;;;10.50
63220;BMP180;49320;52.512;13.448;2022-12-07T04:24:25;100526.00;;;10.40
63220;BMP180;49320;52.512;13.448;2022-12-07T04:26:52;100529.00;;;10.40
63220;BMP180;49320;52.512;13.448;2022-12-07T04:29:19;100527.00;;;10.40
63220;BMP180;49320;52.512;13.448;2022-12-07T04:31:47;100527.00;;;10.40
63220;BMP180;49320;52.512;13.448;2022-12-07T04:34:15;100520.00;;;10.40
63220;BMP180;49320;52.512;13.448;2022-12-07T04:36:43;100507.00;;;10.40
63220;BMP180;49320;52.512;13.448;2022-12-07T04:39:24;100505.00;;;10.40
63220;BMP180;49320;52.512;13.448;2022-12-07T04:41:52;100509.00;;;10.40
63220;BMP180;49320;52.512;13.448;2022-12-07T04:44:20;100502.00;;;10.40
63220;BMP180;49320;52.512;13.448;2022-12-07T04:46:47;100493.00;;;10.40
63220;BMP180;49320;52.512;13.448;2022-12-07T04:49:15;100491.00;;;10.40
63220;BMP180;49320;52.512;13.448;2022-12-07T04:51:43;100495.00;;;10.40
63220;BMP180;49320;52.512;13.448;2022-12-07T04:54:11;100497.00;;;10.40
63220;BMP180;49320;52.512;13.448;2022-12-07T04:56:38;100490.00;;;10.40
63220;BMP180;49320;52.512;13.448;2022-12-07T04:59:05;100489.00;;;10.40
63220;BMP180;49320;52.512;13.448;2022-12-07T05:01:33;100486.00;;;10.40
63220;BMP180;49320;52.512;13.448;2022-12-07T05:04:00;100485.00;;;10.40
63220;BMP180;49320;52.512;13.448;2022-12-07T05:06:27;100488.00;;;10.40
63220;BMP180;49320;52.512;13.448;2022-12-07T05:08:53;100487.00;;;10.40
63220;BMP180;49320;52.512;13.448;2022-12-07T05:11:21;100484.00;;;10.40
63220;BMP180;49320;52.512;13.448;2022-12-07T05:14:18;100483.00;;;10.40
63220;BMP180;49320;52.512;13.448;2022-12-07T05:16:50;100477.00;;;10.40
63220;BMP180;49320;52.512;13.448;2022-12-07T05:19:18;100476.00;;;10.40
63220;BMP180;49320;52.512;13.448;2022-12-07T05:21:45;100471.00;;;10.40
63220;BMP180;49320;52.512;13.448;2022-12-07T05:24:14;100470.00;;;10.40
63220;BMP180;49320;52.512;13.448;2022-12-07T05:26:42;100470.00;;;10.40
63220;BMP180;49320;52.512;13.448;2022-12-07T05:29:13;100469.00;;;10.40
63220;BMP180;49320;52.512;13.448;2022-12-07T05:31:40;100472.00;;;10.50
63220;BMP180;49320;52.512;13.448;2022-12-07T05:34:08;100465.00;;;10.50
63220;BMP180;49320;52.512;13.448;2022-12-07T05:36:35;100465.00;;;10.50
63220;BMP180;49320;52.512;13.448;2022-12-07T05:39:02;100458.00;;;10.50
63220;BMP180;49320;52.512;13.448;2022-12-07T05:41:29;100460.00;;;10.60
63220;BMP180;49320;52.512;13.448;2022-12-07T05:44:14;100447.00;;;10.60
63220;BMP180;49320;52.512;13.448;2022-12-07T05:46:41;100455.00;;;10.60
63220;BMP180;49320;52.512;13.448;2022-12-07T05:49:08;100451.00;;;10.60
63220;BMP180;49320;52.512;13.448;2022-12-07T05:51:35;100459.00;;;10.60
63220;BMP180;49320;52.512;13.448;2022-12-07T05:54:02;100445.00;;;10.60
63220;BMP180;49320;52.512;13.448;2022-12-07T05:56:29;100450.00;;;10.70
63220;BMP180;49320;52.512;13.448;2022-12-07T05:58:56;100438.00;;;10.70
63220;BMP180;49320;52.512;13.448;2022-12-07T06:01:41;100447.00;;;10.60
63220;BMP180;49320;52.512;13.448;2022-12-07T06:04:09;100442.00;;;10.70
63220;BMP180;49320;52.512;13.448;2022-12-07T06:06:36;100437.00;;;10.70
63220;BMP180;49320;52.512;13.448;2022-12-07T06:09:03;100433.00;;;10.80
63220;BMP180;49320;52.512;13.448;2022-12-07T06:11:30;100425.00;;;10.80
63220;BMP180;49320;52.512;13.448;2022-12-07T06:14:16;100420.00;;;10.80
63220;BMP180;49320;52.512;13.448;2022-12-07T06:16:43;100413.00;;;10.80
63220;BMP180;49320;52.512;13.448;2022-12-07T06:19:10;100413.00;;;10.90
63220;BMP180;49320;52.512;13.448;2022-12-07T06:21:37;100409.00;;;11.00
63220;BMP180;49320;52.512;13.448;2022-12-07T06:24:04;100404.00;;;11.00
63220;BMP180;49320;52.512;13.448;2022-12-07T06:26:31;100394.00;;;11.00
63220;BMP180;49320;52.512;13.448;2022-12-07T06:28:58;100413.00;;;11.10
63220;BMP180;49320;52.512;13.448;2022-12-07T06:31:25;100401.00;;;11.10
63220;BMP180;49320;52.512;13.448;2022-12-07T06:34:00;100407.00;;;11.10
63220;BMP180;49320;52.512;13.448;2022-12-07T06:36:28;100405.00;;;11.10
63220;BMP180;49320;52.512;13.448;2022-12-07T06:38:55;100409.00;;;11.10
63220;BMP180;49320;52.512;13.448;2022-12-07T06:41:23;100411.00;;;11.10
63220;BMP180;49320;52.512;13.448;2022-12-07T06:43:51;100405.00;;;11.10
63220;BMP180;49320;52.512;13.448;2022-12-07T06:46:22;100422.00;;;11.10
63220;BMP180;49320;52.512;13.448;2022-12-07T06:48:50;100405.00;;;11.10
63220;BMP180;49320;52.512;13.448;2022-12-07T06:51:17;100414.00;;;11.10
63220;BMP180;49320;52.512;13.448;2022-12-07T06:53:43;100410.00;;;11.10
63220;BMP180;49320;52.512;13.448;2022-12-07T06:56:10;100409.00;;;11.20
63220;BMP180;49320;52.512;13.448;2022-12-07T06:58:37;100406.00;;;11.20
63220;BMP180;49320;52.512;13.448;2022-12-07T07:01:10;100404.00;;;11.20
63220;BMP180;49320;52.512;13.448;2022-12-07T07:03:37;100399.00;;;11.20
63220;BMP180;49320;52.512;13.448;2022-12-07T07:06:06;100399.00;;;11.20
63220;BMP180;49320;52.512;13.448;2022-12-07T07:08:35;100394.00;;;11.20
63220;BMP180;49320;52.512;13.448;2022-12-07T07:11:03;100400.00;;;11.30
63220;BMP180;49320;52.512;13.448;2022-12-07T07:13:30;100400.00;;;11.30
63220;BMP180;49320;52.512;13.448;2022-12-07T07:15:57;100400.00;;;11.40
63220;BMP180;49320;52.512;13.448;2022-12-07T07:18:25;100395.00;;;11.30
63220;BMP180;49320;52.512;13.448;2022-12-07T07:20:52;100411.00;;;11.40
63220;BMP180;49320;52.512;13.448;2022-12-07T07:23:20;100406.00;;;11.40
63220;BMP180;49320;52.512;13.448;2022-12-07T07:25:48;100410.00;;;11.40
63220;BMP180;49320;52.512;13.448;2022-12-07T07:28:16;100412.00;;;11.50
63220;BMP180;49320;52.512;13.448;2022-12-07T07:30:42;100406.00;;;11.50
63220;BMP180;49320;52.512;13.448;2022-12-07T07:33:10;100405.00;;;11.50
63220;BMP180;49320;52.512;13.448;2022-12-07T07:35:37;100407.00;;;11.50
63220;BMP180;49320;52.512;13.448;2022-12-07T07:38:06;100400.00;;;11.60
63220;BMP180;49320;52.512;13.448;2022-12-07T07:40:34;100391.00;;;11.60
63220;BMP180;49320;52.512;13.448;2022-12-07T07:43:01;100389.00;;;11.60
63220;BMP180;49320;52.512;13.448;2022-12-07T07:45:28;100389.00;;;11.60
63220;BMP180;49320;52.512;13.448;2022-12-07T07:47:54;100386.00;;;11.60
63220;BMP180;49320;52.512;13.448;2022-12-07T07:50:22;100393.00;;;11.60
63220;BMP180;49320;52.512;13.448;2022-12-07T07:52:51;100394.00;;;11.60
63220;BMP180;49320;52.512;13.448;2022-12-07T07:55:18;100403.00;;;11.60
63220;BMP180;49320;52.512;13.448;2022-12-07T07:57:44;100392.00;;;11.60
63220;BMP180;49320;52.512;13.448;2022-12-07T08:00:20;100391.00;;;11.60
63220;BMP180;49320;52.512;13.448;2022-12-07T08:02:47;100402.00;;;11.60
63220;BMP180;49320;52.512;13.448;2022-12-07T08:05:14;100410.00;;;11.60
63220;BMP180;49320;52.512;13.448;2022-12-07T08:07:41;100415.00;;;11.60
63220;BMP180;49320;52.512;13.448;2022-12-07T08:10:11;100411.00;;;11.60
63220;BMP180;49320;52.512;13.448;2022-12-07T08:12:42;100412.00;;;11.50
63220;BMP180;49320;52.512;13.448;2022-12-07T08:15:30;100413.00;;;11.50
63220;BMP180;49320;52.512;13.448;2022-12-07T08:17:57;100409.00;;;11.50
63220;BMP180;49320;52.512;13.448;2022-12-07T08:20:25;100417.00;;;11.50
63220;BMP180;49320;52.512;13.448;2022-12-07T08:22:51;100420.00;;;11.50
63220;BMP180;49320;52.512;13.448;2022-12-07T08:25:19;100424.00;;;11.60
63220;BMP180;49320;52.512;13.448;2022-12-07T08:27:45;100412.00;;;11.50
63220;BMP180;49320;52.512;13.448;2022-12-07T08:30:13;100410.00;;;11.50
63220;BMP180;49320;52.512;13.448;2022-12-07T08:32:40;100420.00;;;11.50
63220;BMP180;49320;52.512;13.448;2022-12-07T08:35:08;100418.00;;;11.50
63220;BMP180;49320;52.512;13.448;2022-12-07T08:37:35;100409.00;;;11.50
63220;BMP180;49320;52.512;13.448;2022-12-07T08:40:06;100433.00;;;11.50
63220;BMP180;49320;52.512;13.448;2022-12-07T08:42:33;100418.00;;;11.60
63220;BMP180;49320;52.512;13.448;2022-12-07T08:45:13;100432.00;;;11.60
63220;BMP180;49320;52.512;13.448;2022-12-07T08:47:53;100420.00;;;11.60
63220;BMP180;49320;52.512;13.448;2022-12-07T08:50:21;100427.00;;;11.60
63220;BMP180;49320;52.512;13.448;2022-12-07T08:52:55;100434.00;;;11.50
63220;BMP180;49320;52.512;13.448;2022-12-07T08:55:23;100437.00;;;11.50
63220;BMP180;49320;52.512;13.448;2022-12-07T08:57:51;100443.00;;;11.50
63220;BMP180;49320;52.512;13.448;2022-12-07T09:00:18;100433.00;;;11.50
63220;BMP180;49320;52.512;13.448;2022-12-07T09:02:46;100437.00;;;11.50
63220;BMP180;49320;52.512;13.448;2022-12-07T09:05:13;100430.00;;;11.50
63220;BMP180;49320;52.512;13.448;2022-12-07T09:07:47;100453.00;;;11.50
63220;BMP180;49320;52.512;13.448;2022-12-07T09:10:15;100448.00;;;11.60
63220;BMP180;49320;52.512;13.448;2022-12-07T09:12:41;100442.00;;;11.60
63220;BMP180;49320;52.512;13.448;2022-12-07T09:15:08;100453.00;;;11.60
63220;BMP180;49320;52.512;13.448;2022-12-07T09:17:35;100455.00;;;11.50
63220;BMP180;49320;52.512;13.448;2022-12-07T09:20:04;100450.00;;;11.50
63220;BMP180;49320;52.512;13.448;2022-12-07T09:22:32;100451.00;;;11.50
63220;BMP180;49320;52.512;13.448;2022-12-07T09:25:00;100448.00;;;11.50
63220;BMP180;49320;52.512;13.448;2022-12-07T09:27:27;100468.00;;;11.50
63220;BMP180;49320;52.512;13.448;2022-12-07T09:29:54;100453.00;;;11.40
63220;BMP180;49320;52.512;13.448;2022-12-07T09:32:21;100462.00;;;11.40
63220;BMP180;49320;52.512;13.448;2022-12-07T09:34:48;100468.00;;;11.40
63220;BMP180;49320;52.512;13.448;2022-12-07T09:37:15;100454.00;;;11.40
63220;BMP180;49320;52.512;13.448;2022-12-07T09:39:42;100470.00;;;11.40
63220;BMP180;49320;52.512;13.448;2022-12-07T09:42:36;100474.00;;;11.40
63220;BMP180;49320;52.512;13.448;2022-12-07T09:45:10;100468.00;;;11.40
63220;BMP180;49320;52.512;13.448;2022-12-07T09:47:38;100476.00;;;11.40
63220;BMP180;49320;52.512;13.448;2022-12-07T09:50:13;100471.00;;;11.30
63220;BMP180;49320;52.512;13.448;2022-12-07T09:52:44;100465.00;;;11.30
63220;BMP180;49320;52.512;13.448;2022-12-07T09:55:29;100473.00;;;11.30
63220;BMP180;49320;52.512;13.448;2022-12-07T09:57:58;100478.00;;;11.30
63220;BMP180;49320;52.512;13.448;2022-12-07T10:00:25;100478.00;;;11.30
63220;BMP180;49320;52.512;13.448;2022-12-07T10:03:00;100483.00;;;11.20
63220;BMP180;49320;52.512;13.448;2022-12-07T10:05:38;100483.00;;;11.20
63220;BMP180;49320;52.512;13.448;2022-12-07T10:08:11;100480.00;;;11.20
63220;BMP180;49320;52.512;13.448;2022-12-07T10:10:39;100474.00;;;11.20
63220;BMP180;49320;52.512;13.448;2022-12-07T10:13:16;100479.00;;;11.20
63220;BMP180;49320;52.512;13.448;2022-12-07T10:15:54;100488.00;;;11.20
63220;BMP180;49320;52.512;13.448;2022-12-07T10:23:58;100490.00;;;11.10
63220;BMP180;49320;52.512;13.448;2022-12-07T10:26:34;100485.00;;;11.10
63220;BMP180;49320;52.512;13.448;2022-12-07T10:29:30;100482.00;;;11.10
63220;BMP180;49320;52.512;13.448;2022-12-07T10:32:32;100484.00;;;11.10
63220;BMP180;49320;52.512;13.448;2022-12-07T10:35:24;100476.00;;;11.00
63220;BMP180;49320;52.512;13.448;2022-12-07T10:38:16;100462.00;;;11.00
63220;BMP180;49320;52.512;13.448;2022-12-07T10:41:07;100479.00;;;11.00
63220;BMP180;49320;52.512;13.448;2022-12-07T10:43:34;100478.00;;;11.00
63220;BMP180;49320;52.512;13.448;2022-12-07T10:46:07;100477.00;;;10.90
63220;BMP180;49320;52.512;13.448;2022-12-07T11:04:43;100477.00;;;10.90
63220;BMP180;49320;52.512;13.448;2022-12-07T11:10:50;100474.00;;;11.00
63220;BMP180;49320;52.512;13.448;2022-12-07T11:16:55;100473.00;;;11.10
63220;BMP180;49320;52.512;13.448;2022-12-07T11:20:05;100469.00;;;11.10
63220;BMP180;49320;52.512;13.448;2022-12-07T11:23:12;100463.00;;;11.10
63220;BMP180;49320;52.512;13.448;2022-12-07T11:25:54;100465.00;;;11.20
63220;BMP180;49320;52.512;13.448;2022-12-07T11:35:05;100455.00;;;11.20
63220;BMP180;49320;52.512;13.448;2022-12-07T11:37:37;100447.00;;;11.30
63220;BMP180;49320;52.512;13.448;2022-12-07T11:40:26;100442.00;;;11.30
63220;BMP180;49320;52.512;13.448;2022-12-07T11:43:31;100453.00;;;11.30
63220;BMP180;49320;52.512;13.448;2022-12-07T11:46:14;100445.00;;;11.30
63220;BMP180;49320;52.512;13.448;2022-12-07T11:49:10;100448.00;;;11.30
63220;BMP180;49320;52.512;13.448;2022-12-07T11:51:40;100436.00;;;11.40
63220;BMP180;49320;52.512;13.448;2022-12-07T11:54:25;100450.00;;;11.40
63220;BMP180;49320;52.512;13.448;2022-12-07T11:56:56;100443.00;;;11.40
63220;BMP180;49320;52.512;13.448;2022-12-07T11:59:36;100446.00;;;11.50
63220;BMP180;49320;52.512;13.448;2022-12-07T12:02:32;100451.00;;;11.50
63220;BMP180;49320;52.512;13.448;2022-12-07T12:05:16;100451.00;;;11.60
63220;BMP180;49320;52.512;13.448;2022-12-07T12:11:01;100439.00;;;11.60
63220;BMP180;49320;52.512;13.448;2022-12-07T12:20:40;100433.00;;;11.80
63220;BMP180;49320;52.512;13.448;2022-12-07T12:23:19;100424.00;;;11.90
63220;BMP180;49320;52.512;13.448;2022-12-07T12:26:00;100418.00;;;12.00
63220;BMP180;49320;52.512;13.448;2022-12-07T12:28:51;100416.00;;;12.10
63220;BMP180;49320;52.512;13.448;2022-12-07T12:31:33;100423.00;;;12.10
63220;BMP180;49320;52.512;13.448;2022-12-07T12:36:51;100425.00;;;12.20
63220;BMP180;49320;52.512;13.448;2022-12-07T12:39:19;100426.00;;;12.20
63220;BMP180;49320;52.512;13.448;2022-12-07T12:54:25;100428.00;;;12.30
63220;BMP180;49320;52.512;13.448;2022-12-07T12:57:26;100421.00;;;12.30
63220;BMP180;49320;52.512;13.448;2022-12-07T13:02:38;100420.00;;;12.40
63220;BMP180;49320;52.512;13.448;2022-12-07T13:18:41;100411.00;;;12.50
63220;BMP180;49320;52.512;13.448;2022-12-07T13:26:35;100411.00;;;12.40
63220;BMP180;49320;52.512;13.448;2022-12-07T13:29:20;100414.00;;;12.40
63220;BMP180;49320;52.512;13.448;2022-12-07T13:31:55;100400.00;;;12.40
63220;BMP180;49320;52.512;13.448;2022-12-07T13:34:40;100414.00;;;12.50
63220;BMP180;49320;52.512;13.448;2022-12-07T13:37:30;100417.00;;;12.50
63220;BMP180;49320;52.512;13.448;2022-12-07T13:40:22;100399.00;;;12.50
63220;BMP180;49320;52.512;13.448;2022-12-07T13:43:04;100392.00;;;12.50
63220;BMP180;49320;52.512;13.448;2022-12-07T13:45:39;100398.00;;;12.50
63220;BMP180;49320;52.512;13.448;2022-12-07T13:48:30;100398.00;;;12.50
63220;BMP180;49320;52.512;13.448;2022-12-07T13:51:02;100394.00;;;12.50
63220;BMP180;49320;52.512;13.448;2022-12-07T13:53:29;100400.00;;;12.50
63220;BMP180;49320;52.512;13.448;2022-12-07T13:55:59;100409.00;;;12.50
63220;BMP180;49320;52.512;13.448;2022-12-07T13:58:31;100406.00;;;12.50
63220;BMP180;49320;52.512;13.448;2022-12-07T14:00:59;100406.00;;;12.50
63220;BMP180;49320;52.512;13.448;2022-12-07T14:03:32;100413.00;;;12.50
63220;BMP180;49320;52.512;13.448;2022-12-07T14:06:15;100410.00;;;12.50
63220;BMP180;49320;52.512;13.448;2022-12-07T14:08:44;100404.00;;;12.50
63220;BMP180;49320;52.512;13.448;2022-12-07T14:11:20;100410.00;;;12.50
63220;BMP180;49320;52.512;13.448;2022-12-07T14:13:58;100416.00;;;12.50
63220;BMP180;49320;52.512;13.448;2022-12-07T14:16:35;100400.00;;;12.50
63220;BMP180;49320;52.512;13.448;2022-12-07T14:19:41;100407.00;;;12.50
63220;BMP180;49320;52.512;13.448;2022-12-07T14:22:37;100421.00;;;12.50
63220;BMP180;49320;52.512;13.448;2022-12-07T14:27:53;100408.00;;;12.40
63220;BMP180;49320;52.512;13.448;2022-12-07T14:30:26;100414.00;;;12.40
63220;BMP180;49320;52.512;13.448;2022-12-07T14:33:04;100411.00;;;12.30
63220;BMP180;49320;52.512;13.448;2022-12-07T14:35:32;100395.00;;;12.30
63220;BMP180;49320;52.512;13.448;2022-12-07T14:37:59;100397.00;;;12.30
63220;BMP180;49320;52.512;13.448;2022-12-07T14:40:28;100393.00;;;12.20
63220;BMP180;49320;52.512;13.448;2022-12-07T14:43:02;100403.00;;;12.20
63220;BMP180;49320;52.512;13.448;2022-12-07T14:45:30;100395.00;;;12.20
63220;BMP180;49320;52.512;13.448;2022-12-07T14:47:57;100393.00;;;12.30
63220;BMP180;49320;52.512;13.448;2022-12-07T14:50:49;100385.00;;;12.20
63220;BMP180;49320;52.512;13.448;2022-12-07T14:53:43;100404.00;;;12.20
63220;BMP180;49320;52.512;13.448;2022-12-07T14:56:15;100394.00;;;12.10
63220;BMP180;49320;52.512;13.448;2022-12-07T14:58:42;100391.00;;;12.10
63220;BMP180;49320;52.512;13.448;2022-12-07T15:01:09;100396.00;;;12.00
63220;BMP180;49320;52.512;13.448;2022-12-07T15:03:35;100397.00;;;12.00
63220;BMP180;49320;52.512;13.448;2022-12-07T15:06:06;100396.00;;;12.00
63220;BMP180;49320;52.512;13.448;2022-12-07T15:08:33;100389.00;;;11.90
63220;BMP180;49320;52.512;13.448;2022-12-07T15:11:00;100390.00;;;11.90
63220;BMP180;49320;52.512;13.448;2022-12-07T15:13:26;100393.00;;;11.80
63220;BMP180;49320;52.512;13.448;2022-12-07T15:16:16;100389.00;;;11.80
63220;BMP180;49320;52.512;13.448;2022-12-07T15:18:45;100394.00;;;11.70
63220;BMP180;49320;52.512;13.448;2022-12-07T15:21:32;100384.00;;;11.70
63220;BMP180;49320;52.512;13.448;2022-12-07T15:23:58;100388.00;;;11.70
63220;BMP180;49320;52.512;13.448;2022-12-07T15:26:25;100394.00;;;11.60
63220;BMP180;49320;52.512;13.448;2022-12-07T15:28:53;100387.00;;;11.60
63220;BMP180;49320;52.512;13.448;2022-12-07T15:31:20;100397.00;;;11.60
63220;BMP180;49320;52.512;13.448;2022-12-07T15:34:07;100383.00;;;11.50
63220;BMP180;49320;52.512;13.448;2022-12-07T15:36:35;100390.00;;;11.50
63220;BMP180;49320;52.512;13.448;2022-12-07T15:39:02;100387.00;;;11.40
63220;BMP180;49320;52.512;13.448;2022-12-07T15:41:45;100389.00;;;11.40
63220;BMP180;49320;52.512;13.448;2022-12-07T15:44:13;100388.00;;;11.40
63220;BMP180;49320;52.512;13.448;2022-12-07T15:46:59;100385.00;;;11.40
63220;BMP180;49320;52.512;13.448;2022-12-07T15:49:27;100390.00;;;11.40
63220;BMP180;49320;52.512;13.448;2022-12-07T15:51:54;100388.00;;;11.40
63220;BMP180;49320;52.512;13.448;2022-12-07T15:54:27;100388.00;;;11.40
63220;BMP180;49320;52.512;13.448;2022-12-07T15:56:56;100403.00;;;11.40
63220;BMP180;49320;52.512;13.448;2022-12-07T15:59:23;100392.00;;;11.40
63220;BMP180;49320;52.512;13.448;2022-12-07T16:01:50;100401.00;;;11.40
63220;BMP180;49320;52.512;13.448;2022-12-07T16:04:17;100387.00;;;11.50
63220;BMP180;49320;52.512;13.448;2022-12-07T16:06:45;100398.00;;;11.50